createdAt,value
2018-12-05T00:01:09.982Z,14.13
2018-12-05T00:03:38.357Z,14.58
2018-12-05T00:06:07.115Z,16.20
2018-12-05T00:08:35.551Z,11.30
2018-12-05T00:11:05.797Z,14.23
2018-12-05T00:13:34.173Z,16.20
2018-12-05T00:16:02.505Z,12.35
2018-12-05T00:18:31.274Z,13.90
2018-12-05T00:20:59.489Z,12.13
2018-12-05T00:23:27.729Z,13.55
2018-12-05T00:25:55.942Z,17.55
2018-12-05T00:28:24.186Z,12.05
2018-12-05T00:30:54.245Z,11.73
2018-12-05T00:33:22.520Z,12.20
2018-12-05T00:35:51.000Z,11.93
2018-12-05T00:38:19.364Z,13.00
2018-12-05T00:40:49.120Z,11.90
2018-12-05T00:43:17.578Z,13.65
2018-12-05T00:45:45.789Z,12.05
2018-12-05T00:48:14.043Z,13.45
2018-12-05T00:50:42.420Z,11.33
2018-12-05T00:53:10.655Z,12.18
2018-12-05T00:55:38.907Z,12.43
2018-12-05T00:58:07.234Z,14.40
2018-12-05T01:00:35.595Z,11.48
2018-12-05T01:03:03.940Z,10.88
2018-12-05T01:05:33.506Z,10.80
2018-12-05T01:08:01.729Z,11.12
2018-12-05T01:10:30.489Z,15.05
2018-12-05T01:12:58.717Z,12.53
2018-12-05T01:15:28.486Z,10.58
2018-12-05T01:17:56.737Z,10.90
2018-12-05T01:20:24.987Z,10.85
2018-12-05T01:22:53.194Z,10.03
2018-12-05T01:25:22.758Z,13.53
2018-12-05T01:27:50.973Z,14.35
2018-12-05T01:30:19.204Z,13.15
2018-12-05T01:32:49.439Z,9.30
2018-12-05T01:35:18.431Z,8.63
2018-12-05T01:37:48.061Z,11.43
2018-12-05T01:40:16.332Z,11.35
2018-12-05T01:42:46.004Z,13.62
2018-12-05T01:45:14.383Z,10.25
2018-12-05T01:47:43.918Z,12.28
2018-12-05T01:50:12.605Z,12.37
2018-12-05T01:52:42.618Z,11.12
2018-12-05T01:55:10.900Z,12.28
2018-12-05T01:57:40.586Z,10.58
2018-12-05T02:00:08.815Z,12.07
2018-12-05T02:02:38.676Z,11.68
2018-12-05T02:05:06.953Z,12.10
2018-12-05T02:07:36.605Z,11.35
2018-12-05T02:10:05.030Z,11.15
2018-12-05T02:12:35.026Z,10.93
2018-12-05T02:15:03.265Z,11.10
2018-12-05T02:17:33.549Z,11.40
2018-12-05T02:20:04.661Z,13.60
2018-12-05T02:22:51.612Z,11.10
2018-12-05T02:25:21.566Z,9.68
2018-12-05T02:27:51.847Z,10.45
2018-12-05T02:30:20.079Z,9.98
2018-12-05T02:32:49.765Z,11.88
2018-12-05T02:35:17.965Z,11.25
2018-12-05T02:37:47.519Z,9.48
2018-12-05T02:40:15.746Z,9.23
2018-12-05T02:42:45.305Z,11.68
2018-12-05T02:45:13.528Z,24.63
2018-12-05T02:47:43.382Z,14.03
2018-12-05T02:50:11.611Z,19.50
2018-12-05T02:52:41.398Z,11.38
2018-12-05T02:55:09.618Z,11.35
2018-12-05T02:57:39.194Z,10.25
2018-12-05T03:00:07.823Z,10.93
2018-12-05T03:02:38.090Z,11.35
2018-12-05T03:05:07.907Z,11.55
2018-12-05T03:07:38.575Z,10.68
2018-12-05T03:10:07.252Z,12.63
2018-12-05T03:12:37.319Z,11.55
2018-12-05T03:15:05.773Z,11.83
2018-12-05T03:17:35.384Z,11.20
2018-12-05T03:20:05.355Z,10.50
2018-12-05T03:22:35.303Z,9.73
2018-12-05T03:25:03.765Z,9.90
2018-12-05T03:27:33.229Z,9.55
2018-12-05T03:30:01.762Z,9.48
2018-12-05T03:32:32.059Z,10.98
2018-12-05T03:35:00.515Z,14.38
2018-12-05T03:37:31.367Z,12.30
2018-12-05T03:39:59.588Z,9.85
2018-12-05T03:42:29.230Z,12.95
2018-12-05T03:44:57.471Z,12.78
2018-12-05T03:47:25.705Z,14.20
2018-12-05T03:49:59.498Z,14.03
2018-12-05T03:52:29.686Z,11.08
2018-12-05T03:54:58.027Z,12.40
2018-12-05T03:57:26.311Z,12.90
2018-12-05T03:59:54.556Z,12.15
2018-12-05T04:02:24.134Z,12.30
2018-12-05T04:04:52.355Z,11.28
2018-12-05T04:07:21.814Z,12.47
2018-12-05T04:09:50.087Z,12.80
2018-12-05T04:12:19.636Z,13.08
2018-12-05T04:14:47.892Z,10.45
2018-12-05T04:17:17.437Z,11.70
2018-12-05T04:19:45.689Z,11.48
2018-12-05T04:22:13.932Z,11.45
2018-12-05T04:24:42.201Z,11.83
2018-12-05T04:27:10.433Z,10.08
2018-12-05T04:29:38.685Z,14.98
2018-12-05T04:32:06.903Z,14.90
2018-12-05T04:34:35.181Z,14.93
2018-12-05T04:37:04.826Z,13.13
2018-12-05T04:39:33.082Z,23.40
2018-12-05T04:42:01.645Z,20.35
2018-12-05T04:44:30.285Z,20.55
2018-12-05T04:46:59.924Z,15.28
2018-12-05T04:49:28.303Z,14.13
2018-12-05T04:51:56.526Z,13.45
2018-12-05T04:54:24.762Z,26.57
2018-12-05T04:56:52.986Z,26.17
2018-12-05T04:59:21.223Z,25.32
2018-12-05T05:04:28.961Z,27.58
2018-12-05T05:06:57.187Z,33.63
2018-12-05T05:09:25.428Z,27.35
2018-12-05T05:11:54.965Z,16.70
2018-12-05T05:14:23.234Z,15.15
2018-12-05T05:16:52.770Z,22.52
2018-12-05T05:19:21.014Z,17.77
2018-12-05T05:21:50.446Z,17.62
2018-12-05T05:24:18.686Z,15.63
2018-12-05T05:26:48.119Z,15.72
2018-12-05T05:29:16.354Z,16.95
2018-12-05T05:31:44.563Z,18.65
2018-12-05T05:34:12.826Z,23.98
2018-12-05T05:36:41.046Z,17.57
2018-12-05T05:39:09.270Z,21.62
2018-12-05T05:41:39.530Z,25.72
2018-12-05T05:44:07.719Z,26.10
2018-12-05T05:46:36.003Z,28.62
2018-12-05T05:49:04.202Z,23.90
2018-12-05T05:51:33.869Z,17.15
2018-12-05T05:54:02.072Z,15.88
2018-12-05T05:56:31.638Z,16.65
2018-12-05T05:58:59.878Z,20.65
2018-12-05T06:01:28.107Z,19.65
2018-12-05T06:03:56.357Z,20.82
2018-12-05T06:06:24.592Z,16.75
2018-12-05T06:08:52.798Z,17.07
2018-12-05T06:11:22.374Z,17.52
2018-12-05T06:13:50.583Z,16.40
2018-12-05T06:16:18.826Z,16.87
2018-12-05T06:18:47.029Z,14.10
2018-12-05T06:21:16.695Z,14.58
2018-12-05T06:23:44.914Z,18.50
2018-12-05T06:26:13.143Z,19.17
2018-12-05T06:28:41.336Z,19.32
2018-12-05T06:31:10.813Z,17.50
2018-12-05T06:33:39.006Z,16.20
2018-12-05T06:36:08.556Z,16.73
2018-12-05T06:38:36.814Z,16.32
2018-12-05T06:41:06.547Z,15.53
2018-12-05T06:43:34.861Z,16.10
2018-12-05T06:46:03.062Z,15.60
2018-12-05T06:48:31.292Z,16.73
2018-12-05T06:50:59.547Z,17.60
2018-12-05T06:53:27.910Z,14.78
2018-12-05T06:55:57.451Z,16.55
2018-12-05T06:58:25.677Z,14.60
2018-12-05T07:00:55.142Z,17.20
2018-12-05T07:03:23.387Z,16.77
2018-12-05T07:05:52.835Z,17.25
2018-12-05T07:08:21.206Z,21.12
2018-12-05T07:10:49.410Z,17.50
2018-12-05T07:13:17.656Z,17.40
2018-12-05T07:15:45.852Z,18.10
2018-12-05T07:18:14.103Z,15.93
2018-12-05T07:20:43.742Z,15.45
2018-12-05T07:23:11.978Z,16.57
2018-12-05T07:25:40.210Z,14.68
2018-12-05T07:28:08.493Z,14.40
2018-12-05T07:30:38.055Z,15.53
2018-12-05T07:33:06.311Z,18.23
2018-12-05T07:35:34.536Z,18.62
2018-12-05T07:38:02.746Z,18.42
2018-12-05T07:40:32.217Z,16.65
2018-12-05T07:43:00.418Z,20.68
2018-12-05T07:45:28.667Z,13.72
2018-12-05T07:47:56.908Z,13.22
2018-12-05T07:50:26.378Z,11.47
2018-12-05T07:52:54.585Z,14.17
2018-12-05T07:55:22.814Z,12.60
2018-12-05T07:57:51.054Z,14.30
2018-12-05T08:00:19.398Z,13.93
2018-12-05T08:02:48.931Z,19.33
2018-12-05T08:05:17.612Z,19.27
2018-12-05T08:07:47.043Z,13.80
2018-12-05T08:10:15.287Z,19.13
2018-12-05T08:12:44.827Z,19.43
2018-12-05T08:15:13.083Z,24.60
2018-12-05T08:17:42.625Z,18.93
2018-12-05T08:20:10.879Z,18.90
2018-12-05T08:22:40.614Z,14.07
2018-12-05T08:25:08.996Z,15.50
2018-12-05T08:27:38.642Z,15.90
2018-12-05T08:30:07.397Z,15.57
2018-12-05T08:32:37.147Z,13.40
2018-12-05T08:35:05.616Z,13.87
2018-12-05T08:37:35.852Z,8.50
2018-12-05T08:40:04.984Z,9.30
2018-12-05T08:42:34.919Z,10.70
2018-12-05T08:45:03.193Z,8.83
2018-12-05T08:47:34.041Z,9.33
2018-12-05T08:50:02.567Z,6.97
2018-12-05T08:52:32.295Z,8.53
2018-12-05T08:55:00.539Z,14.00
2018-12-05T08:57:30.778Z,11.27
2018-12-05T08:59:59.013Z,11.30
2018-12-05T09:02:27.210Z,8.97
2018-12-05T09:04:55.445Z,13.20
2018-12-05T09:07:24.738Z,9.43
2018-12-05T09:09:53.175Z,10.07
2018-12-05T09:12:21.387Z,10.93
2018-12-05T09:14:49.601Z,9.47
2018-12-05T09:17:19.155Z,8.07
2018-12-05T09:19:47.501Z,9.30
2018-12-05T09:22:15.738Z,10.15
2018-12-05T09:24:44.082Z,10.03
2018-12-05T09:27:13.664Z,9.93
2018-12-05T09:29:41.883Z,9.60
2018-12-05T09:32:10.126Z,11.57
2018-12-05T09:34:38.354Z,9.28
2018-12-05T09:37:07.850Z,8.38
2018-12-05T09:39:36.465Z,8.90
2018-12-05T09:42:04.702Z,8.25
2018-12-05T09:44:32.914Z,8.10
2018-12-05T09:47:02.482Z,7.78
2018-12-05T09:49:30.728Z,8.30
2018-12-05T09:51:58.954Z,7.47
2018-12-05T09:54:27.164Z,11.53
2018-12-05T09:56:55.526Z,6.50
2018-12-05T09:59:23.750Z,7.50
2018-12-05T10:01:51.990Z,7.70
2018-12-05T10:04:20.193Z,7.95
2018-12-05T10:06:49.666Z,7.20
2018-12-05T10:09:18.015Z,8.20
2018-12-05T10:11:48.271Z,7.80
2018-12-05T10:14:16.478Z,9.25
2018-12-05T10:16:44.751Z,7.72
2018-12-05T10:19:12.970Z,8.88
2018-12-05T10:21:41.206Z,9.55
2018-12-05T10:24:09.443Z,8.53
2018-12-05T10:26:39.015Z,9.25
2018-12-05T10:29:07.218Z,7.00
2018-12-05T10:31:43.842Z,8.90
2018-12-05T10:34:07.270Z,8.80
2018-12-05T10:36:37.124Z,6.63
2018-12-05T10:39:06.393Z,6.75
2018-12-05T10:41:36.654Z,8.03
2018-12-05T10:44:04.910Z,7.70
2018-12-05T10:46:34.350Z,6.75
2018-12-05T10:49:02.600Z,7.60
2018-12-05T10:51:30.956Z,7.70
2018-12-05T10:53:59.351Z,7.05
2018-12-05T10:56:28.897Z,7.25
2018-12-05T10:58:57.168Z,7.33
2018-12-05T11:01:31.085Z,6.40
2018-12-05T11:04:01.459Z,6.97
2018-12-05T11:06:35.623Z,7.90
2018-12-05T11:09:12.248Z,7.35
2018-12-05T11:11:48.066Z,7.55
2018-12-05T11:14:21.979Z,7.53
2018-12-05T11:16:54.115Z,8.13
2018-12-05T11:19:28.191Z,8.05
2018-12-05T11:22:02.227Z,9.30
2018-12-05T11:24:32.648Z,7.60
2018-12-05T11:27:02.299Z,8.63
2018-12-05T11:29:30.562Z,9.53
2018-12-05T11:31:58.771Z,8.43
2018-12-05T11:34:27.026Z,9.80
2018-12-05T11:36:55.271Z,9.05
2018-12-05T11:39:23.550Z,8.53
2018-12-05T11:41:53.092Z,9.15
2018-12-05T11:44:21.350Z,7.20
2018-12-05T11:46:50.895Z,8.13
2018-12-05T11:49:19.134Z,8.03
2018-12-05T11:51:47.335Z,8.00
2018-12-05T11:54:15.566Z,7.77
2018-12-05T11:56:45.206Z,7.90
2018-12-05T11:59:13.481Z,8.15
2018-12-05T12:01:43.018Z,9.00
2018-12-05T12:04:11.276Z,8.70
2018-12-05T12:06:40.710Z,8.60
2018-12-05T12:09:08.994Z,8.80
2018-12-05T12:11:39.242Z,9.55
2018-12-05T12:14:07.469Z,8.27
2018-12-05T12:16:37.010Z,9.57
2018-12-05T12:19:05.260Z,9.75
2018-12-05T12:21:34.809Z,9.67
2018-12-05T12:24:03.878Z,13.63
2018-12-05T12:26:33.316Z,9.50
2018-12-05T12:29:01.875Z,8.50
2018-12-05T12:31:31.529Z,9.70
2018-12-05T12:33:59.895Z,9.20
2018-12-05T12:36:28.099Z,9.67
2018-12-05T12:38:56.347Z,10.47
2018-12-05T12:41:25.884Z,9.67
2018-12-05T12:43:54.144Z,10.73
2018-12-05T12:46:22.375Z,10.03
2018-12-05T12:48:50.738Z,11.67
2018-12-05T12:51:18.977Z,10.00
2018-12-05T12:53:47.356Z,10.38
2018-12-05T12:56:15.587Z,10.23
2018-12-05T12:58:43.816Z,10.70
2018-12-05T13:01:13.487Z,9.83
2018-12-05T13:03:41.726Z,11.70
2018-12-05T13:06:11.200Z,13.00
2018-12-05T13:08:39.420Z,10.63
2018-12-05T13:11:07.654Z,11.73
2018-12-05T13:13:36.207Z,12.43
2018-12-05T13:16:04.445Z,11.67
2018-12-05T13:18:32.788Z,12.70
2018-12-05T13:21:01.029Z,13.00
2018-12-05T13:23:29.481Z,13.77
2018-12-05T13:25:57.739Z,12.70
2018-12-05T13:28:25.941Z,11.57
2018-12-05T13:30:55.615Z,12.37
2018-12-05T13:33:23.953Z,12.93
2018-12-05T13:35:52.201Z,14.90
2018-12-05T13:38:20.414Z,13.10
2018-12-05T13:40:49.974Z,13.90
2018-12-05T13:43:18.190Z,13.67
2018-12-05T13:45:47.759Z,13.63
2018-12-05T13:48:15.961Z,13.27
2018-12-05T13:50:44.207Z,13.00
2018-12-05T13:53:14.242Z,11.83
2018-12-05T13:55:43.718Z,13.23
2018-12-05T13:58:11.932Z,13.30
2018-12-05T14:00:40.142Z,12.10
2018-12-05T14:03:08.386Z,11.57
2018-12-05T14:05:37.826Z,12.13
2018-12-05T14:08:06.060Z,13.30
2018-12-05T14:10:34.275Z,13.60
2018-12-05T14:13:03.954Z,14.65
2018-12-05T14:15:32.181Z,13.00
2018-12-05T14:18:02.340Z,14.40
2018-12-05T14:20:30.812Z,13.58
2018-12-05T14:22:59.069Z,13.90
2018-12-05T14:25:28.722Z,13.47
2018-12-05T14:27:56.970Z,12.23
2018-12-05T14:30:26.501Z,12.88
2018-12-05T14:32:54.740Z,12.57
2018-12-05T14:35:22.954Z,13.72
2018-12-05T14:37:51.214Z,13.40
2018-12-05T14:40:19.427Z,14.00
2018-12-05T14:42:49.000Z,12.40
2018-12-05T14:45:17.680Z,12.43
2018-12-05T14:47:47.349Z,11.90
2018-12-05T14:50:15.569Z,11.93
2018-12-05T14:52:45.250Z,11.90
2018-12-05T14:55:13.480Z,10.80
2018-12-05T14:57:43.152Z,10.78
2018-12-05T15:00:11.994Z,10.60
2018-12-05T15:02:41.942Z,12.28
2018-12-05T15:05:10.199Z,11.73
2018-12-05T15:07:40.189Z,11.53
2018-12-05T15:10:08.485Z,11.67
2018-12-05T15:12:38.797Z,14.70
2018-12-05T15:15:07.386Z,11.53
2018-12-05T15:17:37.622Z,20.62
2018-12-05T15:20:05.887Z,15.25
2018-12-05T15:22:36.169Z,13.03
2018-12-05T15:25:06.463Z,20.47
2018-12-05T15:27:36.110Z,17.70
2018-12-05T15:30:04.970Z,17.52
2018-12-05T15:32:34.730Z,19.35
2018-12-05T15:35:02.982Z,13.40
2018-12-05T15:37:32.842Z,17.77
2018-12-05T15:40:01.122Z,14.10
2018-12-05T15:42:31.382Z,12.85
2018-12-05T15:45:00.068Z,13.32
2018-12-05T15:47:30.223Z,15.20
2018-12-05T15:49:58.488Z,13.95
2018-12-05T15:52:28.135Z,14.05
2018-12-05T15:54:58.709Z,13.70
2018-12-05T15:57:27.286Z,14.70
2018-12-05T15:59:55.531Z,13.30
2018-12-05T16:02:25.205Z,12.10
2018-12-05T16:04:53.538Z,12.87
2018-12-05T16:07:21.802Z,11.60
2018-12-05T16:09:50.016Z,12.85
2018-12-05T16:12:18.283Z,15.00
2018-12-05T16:14:50.773Z,16.67
2018-12-05T16:17:19.599Z,14.85
2018-12-05T16:19:48.074Z,13.10
2018-12-05T16:22:18.360Z,18.77
2018-12-05T16:24:46.608Z,15.28
2018-12-05T16:27:16.174Z,18.37
2018-12-05T16:29:44.391Z,17.67
2018-12-05T16:32:12.668Z,23.73
2018-12-05T16:34:41.030Z,18.55
2018-12-05T16:37:10.907Z,20.88
2018-12-05T16:39:39.146Z,23.73
2018-12-05T16:42:07.410Z,19.12
2018-12-05T16:44:35.647Z,24.23
2018-12-05T16:47:03.899Z,17.32
2018-12-05T16:49:32.250Z,16.42
2018-12-05T16:52:01.821Z,17.12
2018-12-05T16:54:30.389Z,19.55
2018-12-05T16:56:58.666Z,17.60
2018-12-05T16:59:27.322Z,17.40
2018-12-05T17:01:57.822Z,18.65
2018-12-05T17:04:26.062Z,21.82
2018-12-05T17:06:54.312Z,23.57
2018-12-05T17:09:26.132Z,21.07
2018-12-05T17:11:54.157Z,16.75
2018-12-05T17:14:22.380Z,17.85
2018-12-05T17:16:50.604Z,18.30
2018-12-05T17:19:18.930Z,19.00
2018-12-05T17:21:47.245Z,17.73
2018-12-05T17:24:15.515Z,17.25
2018-12-05T17:26:45.159Z,17.27
2018-12-05T17:29:13.394Z,17.23
2018-12-05T17:31:42.933Z,17.80
2018-12-05T17:34:11.198Z,17.07
2018-12-05T17:36:41.341Z,18.30
2018-12-05T17:39:09.730Z,18.82
2018-12-05T17:41:39.978Z,25.23
2018-12-05T17:44:08.357Z,19.80
2018-12-05T17:46:38.217Z,17.62
2018-12-05T17:49:06.557Z,19.57
2018-12-05T17:51:34.927Z,19.52
2018-12-05T17:54:03.878Z,18.73
2018-12-05T17:56:35.065Z,23.42
2018-12-05T17:59:03.739Z,18.87
2018-12-05T18:01:33.270Z,20.48
2018-12-05T18:04:01.859Z,19.25
2018-12-05T18:06:31.531Z,18.90
2018-12-05T18:08:59.778Z,18.73
2018-12-05T18:11:30.013Z,20.43
2018-12-05T18:13:58.259Z,20.45
2018-12-05T18:16:26.614Z,19.40
2018-12-05T18:18:54.889Z,21.27
2018-12-05T18:21:23.116Z,21.95
2018-12-05T18:23:51.335Z,20.40
2018-12-05T18:26:19.577Z,18.92
2018-12-05T18:28:47.794Z,19.50
2018-12-05T18:31:16.079Z,18.05
2018-12-05T18:33:44.319Z,17.82
2018-12-05T18:36:13.994Z,18.30
2018-12-05T18:38:42.235Z,17.02
2018-12-05T18:41:11.919Z,16.85
2018-12-05T18:43:40.145Z,20.27
2018-12-05T18:46:08.396Z,18.65
2018-12-05T18:48:36.626Z,15.43
2018-12-05T18:51:06.306Z,15.70
2018-12-05T18:53:34.683Z,16.12
2018-12-05T18:56:04.279Z,14.65
2018-12-05T18:58:32.494Z,15.30
2018-12-05T19:01:01.047Z,17.30
2018-12-05T19:03:29.411Z,15.20
2018-12-05T19:05:58.980Z,14.63
2018-12-05T19:08:34.082Z,13.43
2018-12-05T19:10:58.827Z,15.30
2018-12-05T19:13:27.054Z,15.13
2018-12-05T19:15:55.288Z,13.98
2018-12-05T19:18:23.693Z,13.75
2018-12-05T19:20:52.013Z,15.23
2018-12-05T19:23:20.238Z,17.02
2018-12-05T19:25:48.489Z,16.37
2018-12-05T19:28:16.710Z,15.45
2018-12-05T19:30:46.387Z,15.60
2018-12-05T19:33:14.597Z,15.28
2018-12-05T19:35:44.336Z,16.87
2018-12-05T19:38:14.602Z,13.35
2018-12-05T19:40:44.342Z,16.12
2018-12-05T19:43:12.601Z,14.78
2018-12-05T19:45:40.940Z,14.43
2018-12-05T19:48:09.182Z,13.80
2018-12-05T19:50:38.721Z,13.03
2018-12-05T19:53:06.957Z,12.90
2018-12-05T19:55:36.494Z,13.58
2018-12-05T19:58:04.853Z,12.05
2018-12-05T20:00:34.414Z,12.18
2018-12-05T20:03:03.182Z,11.95
2018-12-05T20:05:32.715Z,11.80
2018-12-05T20:08:02.239Z,11.20
2018-12-05T20:10:31.979Z,12.20
2018-12-05T20:13:00.395Z,10.28
2018-12-05T20:15:30.059Z,12.18
2018-12-05T20:17:58.441Z,10.80
2018-12-05T20:20:27.987Z,10.55
2018-12-05T20:22:56.455Z,10.65
2018-12-05T20:25:25.998Z,10.60
2018-12-05T20:27:54.245Z,10.48
2018-12-05T20:30:22.588Z,10.65
2018-12-05T20:32:50.840Z,10.25
2018-12-05T20:35:20.496Z,11.22
2018-12-05T20:37:50.257Z,9.78
2018-12-05T20:40:18.467Z,10.32
2018-12-05T20:42:48.058Z,10.72
2018-12-05T20:45:16.278Z,10.20
2018-12-05T20:47:46.459Z,10.95
2018-12-05T20:50:14.683Z,10.13
2018-12-05T20:52:44.361Z,11.25
2018-12-05T20:55:12.615Z,10.53
2018-12-05T20:57:42.191Z,10.45
2018-12-05T21:00:10.427Z,10.70
2018-12-05T21:02:40.932Z,9.28
2018-12-05T21:05:09.513Z,9.75
2018-12-05T21:07:39.313Z,9.85
2018-12-05T21:10:07.764Z,9.23
2018-12-05T21:12:37.564Z,8.95
2018-12-05T21:15:05.922Z,8.60
2018-12-05T21:17:35.870Z,8.05
2018-12-05T21:20:04.703Z,9.80
2018-12-05T21:22:34.809Z,9.20
2018-12-05T21:25:03.335Z,8.60
2018-12-05T21:27:33.045Z,8.65
2018-12-05T21:30:02.804Z,9.15
2018-12-05T21:32:33.420Z,8.00
2018-12-05T21:35:01.680Z,7.90
2018-12-05T21:37:31.552Z,7.85
2018-12-05T21:40:00.095Z,8.75
2018-12-05T21:42:28.371Z,8.95
2018-12-05T21:44:56.739Z,8.30
2018-12-05T21:47:24.963Z,7.67
2018-12-05T21:49:53.203Z,8.35
2018-12-05T21:52:21.533Z,7.53
2018-12-05T21:54:49.799Z,9.23
2018-12-05T21:57:18.245Z,8.60
2018-12-05T21:59:46.493Z,8.50
2018-12-05T22:02:14.995Z,9.25
2018-12-05T22:04:43.460Z,8.15
2018-12-05T22:07:13.094Z,9.05
2018-12-05T22:09:41.477Z,8.08
2018-12-05T22:12:11.299Z,7.10
2018-12-05T22:14:39.534Z,8.25
2018-12-05T22:17:07.749Z,7.75
2018-12-05T22:19:35.990Z,8.53
2018-12-05T22:22:04.191Z,8.05
2018-12-05T22:24:32.551Z,8.48
2018-12-05T22:27:00.768Z,8.70
2018-12-05T22:29:29.447Z,8.48
2018-12-05T22:31:59.090Z,8.05
2018-12-05T22:34:27.286Z,8.00
2018-12-05T22:36:56.830Z,7.45
2018-12-05T22:39:25.027Z,7.87
2018-12-05T22:41:53.811Z,7.20
2018-12-05T22:44:22.022Z,7.10
2018-12-05T22:46:51.699Z,8.63
2018-12-05T22:49:19.918Z,8.00
2018-12-05T22:51:49.573Z,7.15
2018-12-05T22:54:17.778Z,7.75
2018-12-05T22:56:53.805Z,8.83
2018-12-05T22:59:22.030Z,8.20
2018-12-05T23:01:51.491Z,7.60
2018-12-05T23:04:20.262Z,7.10
2018-12-05T23:06:49.827Z,8.38
2018-12-05T23:09:18.050Z,7.95
2018-12-05T23:11:48.302Z,7.62
2018-12-05T23:14:16.533Z,7.42
2018-12-05T23:16:46.147Z,8.95
2018-12-05T23:19:14.874Z,7.83
2018-12-05T23:21:44.437Z,8.05
2018-12-05T23:24:12.770Z,7.80
2018-12-05T23:26:42.326Z,7.33
2018-12-05T23:29:10.887Z,7.65
2018-12-05T23:31:40.451Z,7.70
2018-12-05T23:34:08.787Z,7.42
2018-12-05T23:36:38.363Z,8.58
2018-12-05T23:39:06.575Z,8.05
2018-12-05T23:41:36.861Z,10.70
2018-12-05T23:44:07.104Z,9.25
2018-12-05T23:46:36.974Z,7.90
2018-12-05T23:49:05.318Z,8.75
2018-12-05T23:51:33.647Z,8.80
2018-12-05T23:54:01.898Z,8.60
2018-12-05T23:56:30.225Z,9.75
2018-12-05T23:58:58.465Z,8.18
